sensor_id;sensor_type;location;lat;lon;timestamp;pressure;altitude;pressure_sealevel;temperature;humidity
38253;BME280;24785;52.372;20.672;2023-08-06T00:02:27;99327.41;;;17.93;100.00
38253;BME280;24785;52.372;20.672;2023-08-06T00:12:28;99369.75;;;17.98;100.00
38253;BME280;24785;52.372;20.672;2023-08-06T00:22:28;99355.44;;;17.85;100.00
38253;BME280;24785;52.372;20.672;2023-08-06T00:32:29;99344.34;;;17.75;100.00
38253;BME280;24785;52.372;20.672;2023-08-06T00:42:30;99286.56;;;17.71;100.00
38253;BME280;24785;52.372;20.672;2023-08-06T00:52:31;99213.06;;;17.72;100.00
38253;BME280;24785;52.372;20.672;2023-08-06T01:02:32;99127.44;;;17.68;100.00
38253;BME280;24785;52.372;20.672;2023-08-06T01:22:42;99056.72;;;17.73;100.00
38253;BME280;24785;52.372;20.672;2023-08-06T01:32:46;99011.59;;;17.80;100.00
38253;BME280;24785;52.372;20.672;2023-08-06T01:42:49;99066.56;;;17.81;100.00
38253;BME280;24785;52.372;20.672;2023-08-06T01:52:50;99068.91;;;17.82;100.00
38253;BME280;24785;52.372;20.672;2023-08-06T02:02:51;99042.19;;;17.81;100.00
38253;BME280;24785;52.372;20.672;2023-08-06T02:12:52;99032.84;;;17.78;100.00
38253;BME280;24785;52.372;20.672;2023-08-06T02:22:52;99014.72;;;17.82;100.00
38253;BME280;24785;52.372;20.672;2023-08-06T02:32:53;98999.75;;;17.88;100.00
38253;BME280;24785;52.372;20.672;2023-08-06T02:42:54;99014.59;;;17.94;100.00
38253;BME280;24785;52.372;20.672;2023-08-06T02:52:55;99001.91;;;17.99;100.00
38253;BME280;24785;52.372;20.672;2023-08-06T03:02:55;98984.66;;;18.07;100.00
38253;BME280;24785;52.372;20.672;2023-08-06T03:12:56;98988.63;;;18.13;100.00
38253;BME280;24785;52.372;20.672;2023-08-06T03:22:57;98987.91;;;18.16;100.00
38253;BME280;24785;52.372;20.672;2023-08-06T03:32:58;98968.28;;;18.22;100.00
38253;BME280;24785;52.372;20.672;2023-08-06T03:42:59;98940.09;;;18.27;100.00
38253;BME280;24785;52.372;20.672;2023-08-06T03:53:00;98916.94;;;18.33;100.00
38253;BME280;24785;52.372;20.672;2023-08-06T04:03:00;98890.31;;;18.39;100.00
38253;BME280;24785;52.372;20.672;2023-08-06T04:13:01;98864.81;;;18.43;100.00
38253;BME280;24785;52.372;20.672;2023-08-06T04:23:06;98859.16;;;18.52;100.00
38253;BME280;24785;52.372;20.672;2023-08-06T04:33:06;98859.69;;;18.61;100.00
38253;BME280;24785;52.372;20.672;2023-08-06T04:43:07;98850.59;;;18.73;100.00
38253;BME280;24785;52.372;20.672;2023-08-06T04:53:08;98856.56;;;18.85;100.00
38253;BME280;24785;52.372;20.672;2023-08-06T05:03:09;98845.91;;;18.96;100.00
38253;BME280;24785;52.372;20.672;2023-08-06T05:13:10;98865.88;;;19.11;100.00
38253;BME280;24785;52.372;20.672;2023-08-06T05:23:11;98868.47;;;19.34;100.00
38253;BME280;24785;52.372;20.672;2023-08-06T05:33:12;98870.22;;;19.49;100.00
38253;BME280;24785;52.372;20.672;2023-08-06T05:43:13;98867.03;;;19.73;100.00
38253;BME280;24785;52.372;20.672;2023-08-06T05:53:14;98881.19;;;20.30;100.00
38253;BME280;24785;52.372;20.672;2023-08-06T06:03:14;98899.59;;;20.92;100.00
38253;BME280;24785;52.372;20.672;2023-08-06T06:13:15;98913.88;;;21.29;100.00
38253;BME280;24785;52.372;20.672;2023-08-06T06:23:16;98917.16;;;21.71;100.00
38253;BME280;24785;52.372;20.672;2023-08-06T06:33:17;98908.00;;;22.50;100.00
38253;BME280;24785;52.372;20.672;2023-08-06T06:43:18;98908.75;;;23.21;100.00
38253;BME280;24785;52.372;20.672;2023-08-06T06:53:19;98904.06;;;23.08;100.00
38253;BME280;24785;52.372;20.672;2023-08-06T07:03:20;98892.69;;;23.38;100.00
38253;BME280;24785;52.372;20.672;2023-08-06T07:13:21;98884.72;;;23.79;100.00
38253;BME280;24785;52.372;20.672;2023-08-06T07:23:24;98896.66;;;24.65;100.00
38253;BME280;24785;52.372;20.672;2023-08-06T07:33:25;98888.34;;;24.76;100.00
38253;BME280;24785;52.372;20.672;2023-08-06T07:43:26;98875.97;;;24.57;100.00
38253;BME280;24785;52.372;20.672;2023-08-06T07:53:29;98875.31;;;24.87;100.00
38253;BME280;24785;52.372;20.672;2023-08-06T08:03:32;98875.00;;;24.82;100.00
38253;BME280;24785;52.372;20.672;2023-08-06T08:13:33;98862.19;;;25.43;93.83
38253;BME280;24785;52.372;20.672;2023-08-06T08:23:35;98843.75;;;25.78;93.67
38253;BME280;24785;52.372;20.672;2023-08-06T08:33:35;98838.53;;;26.14;89.69
38253;BME280;24785;52.372;20.672;2023-08-06T08:43:37;98836.38;;;26.52;86.21
38253;BME280;24785;52.372;20.672;2023-08-06T08:53:38;98824.63;;;27.14;81.97
38253;BME280;24785;52.372;20.672;2023-08-06T09:03:40;98814.97;;;26.63;81.85
38253;BME280;24785;52.372;20.672;2023-08-06T09:13:41;98796.44;;;27.10;84.42
38253;BME280;24785;52.372;20.672;2023-08-06T09:23:42;98788.69;;;27.41;82.33
38253;BME280;24785;52.372;20.672;2023-08-06T09:33:43;98780.72;;;27.83;78.69
38253;BME280;24785;52.372;20.672;2023-08-06T09:43:45;98764.81;;;28.07;78.62
38253;BME280;24785;52.372;20.672;2023-08-06T09:53:47;98755.47;;;28.49;74.26
38253;BME280;24785;52.372;20.672;2023-08-06T10:03:49;98761.13;;;28.59;71.86
38253;BME280;24785;52.372;20.672;2023-08-06T10:13:56;98734.19;;;28.79;73.87
38253;BME280;24785;52.372;20.672;2023-08-06T10:23:59;98712.56;;;29.06;73.87
38253;BME280;24785;52.372;20.672;2023-08-06T10:34:00;98694.81;;;29.07;69.93
38253;BME280;24785;52.372;20.672;2023-08-06T10:44:11;98686.84;;;28.97;69.66
38253;BME280;24785;52.372;20.672;2023-08-06T10:54:12;98683.78;;;29.20;64.01
38253;BME280;24785;52.372;20.672;2023-08-06T11:04:15;98648.25;;;29.60;62.29
38253;BME280;24785;52.372;20.672;2023-08-06T11:14:17;98640.78;;;28.56;61.97
38253;BME280;24785;52.372;20.672;2023-08-06T11:24:18;98619.88;;;29.22;63.17
38253;BME280;24785;52.372;20.672;2023-08-06T11:34:19;98625.09;;;29.07;63.71
38253;BME280;24785;52.372;20.672;2023-08-06T11:44:21;98614.00;;;28.69;66.24
38253;BME280;24785;52.372;20.672;2023-08-06T11:54:32;98604.25;;;28.10;66.28
38253;BME280;24785;52.372;20.672;2023-08-06T12:05:00;98580.81;;;29.23;66.07
38253;BME280;24785;52.372;20.672;2023-08-06T12:15:02;98579.81;;;29.55;64.37
38253;BME280;24785;52.372;20.672;2023-08-06T12:25:09;98564.38;;;29.45;60.62
38253;BME280;24785;52.372;20.672;2023-08-06T12:35:12;98554.22;;;29.29;60.51
38253;BME280;24785;52.372;20.672;2023-08-06T12:45:14;98554.81;;;29.11;59.28
38253;BME280;24785;52.372;20.672;2023-08-06T12:55:15;98526.22;;;28.29;61.92
38253;BME280;24785;52.372;20.672;2023-08-06T13:05:16;98558.44;;;27.87;63.25
38253;BME280;24785;52.372;20.672;2023-08-06T13:15:17;98578.50;;;28.16;61.43
38253;BME280;24785;52.372;20.672;2023-08-06T13:25:21;98567.41;;;27.91;63.06
38253;BME280;24785;52.372;20.672;2023-08-06T13:35:23;98587.59;;;28.01;65.11
38253;BME280;24785;52.372;20.672;2023-08-06T13:45:24;98602.78;;;27.76;70.95
38253;BME280;24785;52.372;20.672;2023-08-06T13:55:25;98585.97;;;28.45;69.23
38253;BME280;24785;52.372;20.672;2023-08-06T14:05:27;98587.31;;;28.66;66.11
38253;BME280;24785;52.372;20.672;2023-08-06T14:15:28;98594.25;;;28.16;64.32
38253;BME280;24785;52.372;20.672;2023-08-06T14:25:29;98613.25;;;27.16;68.59
38253;BME280;24785;52.372;20.672;2023-08-06T14:35:30;98641.25;;;26.75;69.99
38253;BME280;24785;52.372;20.672;2023-08-06T14:45:31;98684.69;;;26.41;68.67
38253;BME280;24785;52.372;20.672;2023-08-06T14:55:31;98709.72;;;25.49;75.81
38253;BME280;24785;52.372;20.672;2023-08-06T15:05:33;98710.94;;;26.22;72.85
38253;BME280;24785;52.372;20.672;2023-08-06T15:15:34;98708.03;;;26.52;69.60
38253;BME280;24785;52.372;20.672;2023-08-06T15:25:34;98695.66;;;28.34;60.87
38253;BME280;24785;52.372;20.672;2023-08-06T15:35:35;98710.34;;;27.82;61.08
38253;BME280;24785;52.372;20.672;2023-08-06T15:45:36;98721.00;;;27.11;62.75
38253;BME280;24785;52.372;20.672;2023-08-06T15:55:37;98728.72;;;25.90;64.20
38253;BME280;24785;52.372;20.672;2023-08-06T16:05:38;98732.59;;;25.12;68.32
38253;BME280;24785;52.372;20.672;2023-08-06T16:15:39;98754.03;;;24.83;72.84
38253;BME280;24785;52.372;20.672;2023-08-06T16:25:40;98770.56;;;24.76;74.81
38253;BME280;24785;52.372;20.672;2023-08-06T16:35:48;98781.91;;;24.37;76.26
38253;BME280;24785;52.372;20.672;2023-08-06T16:45:51;98767.25;;;23.58;80.33
38253;BME280;24785;52.372;20.672;2023-08-06T16:55:52;98751.13;;;22.97;82.66
38253;BME280;24785;52.372;20.672;2023-08-06T17:06:02;98767.19;;;22.67;85.65
38253;BME280;24785;52.372;20.672;2023-08-06T17:16:03;98774.69;;;22.30;89.48
38253;BME280;24785;52.372;20.672;2023-08-06T17:26:04;98791.78;;;21.92;92.35
38253;BME280;24785;52.372;20.672;2023-08-06T17:36:05;98813.09;;;21.44;100.00
38253;BME280;24785;52.372;20.672;2023-08-06T17:46:06;98824.25;;;21.21;100.00
38253;BME280;24785;52.372;20.672;2023-08-06T17:56:07;98841.19;;;20.82;100.00
38253;BME280;24785;52.372;20.672;2023-08-06T18:06:08;98844.72;;;20.35;100.00
38253;BME280;24785;52.372;20.672;2023-08-06T18:16:09;98834.88;;;19.79;100.00
38253;BME280;24785;52.372;20.672;2023-08-06T18:26:10;98879.56;;;19.22;100.00
38253;BME280;24785;52.372;20.672;2023-08-06T18:36:11;98887.84;;;19.02;100.00
38253;BME280;24785;52.372;20.672;2023-08-06T18:46:11;98887.06;;;18.75;100.00
38253;BME280;24785;52.372;20.672;2023-08-06T18:56:13;98891.81;;;18.59;100.00
38253;BME280;24785;52.372;20.672;2023-08-06T19:06:34;98888.69;;;18.11;100.00
38253;BME280;24785;52.372;20.672;2023-08-06T19:16:38;98884.28;;;18.03;100.00
38253;BME280;24785;52.372;20.672;2023-08-06T19:26:45;98888.41;;;17.97;100.00
38253;BME280;24785;52.372;20.672;2023-08-06T19:36:46;98890.81;;;17.79;100.00
38253;BME280;24785;52.372;20.672;2023-08-06T19:46:47;98879.97;;;17.60;100.00
38253;BME280;24785;52.372;20.672;2023-08-06T19:56:48;98882.97;;;17.55;100.00
38253;BME280;24785;52.372;20.672;2023-08-06T20:06:49;98878.50;;;17.47;100.00
38253;BME280;24785;52.372;20.672;2023-08-06T20:16:50;98856.06;;;17.46;100.00
38253;BME280;24785;52.372;20.672;2023-08-06T20:26:51;98860.13;;;17.37;100.00
38253;BME280;24785;52.372;20.672;2023-08-06T20:36:52;98868.91;;;17.30;100.00
38253;BME280;24785;52.372;20.672;2023-08-06T20:46:53;98887.28;;;17.21;100.00
38253;BME280;24785;52.372;20.672;2023-08-06T20:56:54;98887.06;;;17.10;100.00
38253;BME280;24785;52.372;20.672;2023-08-06T21:06:55;98897.63;;;16.99;100.00
38253;BME280;24785;52.372;20.672;2023-08-06T21:16:56;98889.53;;;16.84;100.00
38253;BME280;24785;52.372;20.672;2023-08-06T21:26:57;98911.69;;;16.42;100.00
38253;BME280;24785;52.372;20.672;2023-08-06T21:36:57;98928.59;;;15.80;100.00
38253;BME280;24785;52.372;20.672;2023-08-06T21:46:58;98928.72;;;15.71;100.00
38253;BME280;24785;52.372;20.672;2023-08-06T21:56:59;98920.09;;;15.65;100.00
38253;BME280;24785;52.372;20.672;2023-08-06T22:07:00;98922.19;;;15.72;100.00
38253;BME280;24785;52.372;20.672;2023-08-06T22:17:01;98936.19;;;15.62;100.00
38253;BME280;24785;52.372;20.672;2023-08-06T22:27:03;98947.56;;;15.43;100.00
38253;BME280;24785;52.372;20.672;2023-08-06T22:37:04;98973.78;;;15.30;100.00
38253;BME280;24785;52.372;20.672;2023-08-06T22:47:05;98975.03;;;15.33;100.00
38253;BME280;24785;52.372;20.672;2023-08-06T22:57:08;98997.84;;;15.35;100.00
38253;BME280;24785;52.372;20.672;2023-08-06T23:07:10;99016.97;;;15.30;100.00
38253;BME280;24785;52.372;20.672;2023-08-06T23:17:11;99045.66;;;15.23;100.00
38253;BME280;24785;52.372;20.672;2023-08-06T23:27:11;99044.66;;;15.15;100.00
38253;BME280;24785;52.372;20.672;2023-08-06T23:37:12;99024.59;;;14.92;100.00
38253;BME280;24785;52.372;20.672;2023-08-06T23:47:13;99021.66;;;14.72;100.00
38253;BME280;24785;52.372;20.672;2023-08-06T23:57:14;99009.03;;;14.52;100.00
